sensor_id;sensor_type;location;lat;lon;timestamp;pressure;altitude;pressure_sealevel;temperature;humidity
44198;BME280;30157;55.512;37.764;2023-04-06T00:00:32;100632.06;;;4.55;76.17
44198;BME280;30157;55.512;37.764;2023-04-06T00:02:58;100640.69;;;4.57;76.25
44198;BME280;30157;55.512;37.764;2023-04-06T00:05:24;100628.56;;;4.53;76.30
44198;BME280;30157;55.512;37.764;2023-04-06T00:07:49;100632.88;;;4.54;76.33
44198;BME280;30157;55.512;37.764;2023-04-06T00:10:16;100632.75;;;4.51;76.16
44198;BME280;30157;55.512;37.764;2023-04-06T00:12:42;100624.03;;;4.46;76.04
44198;BME280;30157;55.512;37.764;2023-04-06T00:15:08;100637.81;;;4.48;76.33
44198;BME280;30157;55.512;37.764;2023-04-06T00:17:34;100630.81;;;4.44;76.32
44198;BME280;30157;55.512;37.764;2023-04-06T00:20:00;100525.13;;;3.81;76.14
44198;BME280;30157;55.512;37.764;2023-04-06T00:22:26;100635.09;;;4.43;76.38
44198;BME280;30157;55.512;37.764;2023-04-06T00:24:51;100632.31;;;4.37;76.40
44198;BME280;30157;55.512;37.764;2023-04-06T00:27:17;100640.84;;;4.36;76.67
44198;BME280;30157;55.512;37.764;2023-04-06T00:29:44;100645.06;;;4.34;76.83
44198;BME280;30157;55.512;37.764;2023-04-06T00:32:10;100578.75;;;3.98;76.54
44198;BME280;30157;55.512;37.764;2023-04-06T00:34:35;100526.25;;;3.64;76.49
44198;BME280;30157;55.512;37.764;2023-04-06T00:37:01;100615.41;;;4.18;76.84
44198;BME280;30157;55.512;37.764;2023-04-06T00:39:27;100614.28;;;4.10;76.78
44198;BME280;30157;55.512;37.764;2023-04-06T00:41:53;100610.53;;;4.00;76.78
44198;BME280;30157;55.512;37.764;2023-04-06T00:44:20;100579.19;;;3.86;76.95
44198;BME280;30157;55.512;37.764;2023-04-06T00:46:46;100632.31;;;4.11;77.29
44198;BME280;30157;55.512;37.764;2023-04-06T00:49:11;100605.06;;;3.91;77.27
44198;BME280;30157;55.512;37.764;2023-04-06T00:51:37;100617.19;;;3.95;77.35
44198;BME280;30157;55.512;37.764;2023-04-06T00:54:03;100585.00;;;3.80;77.78
44198;BME280;30157;55.512;37.764;2023-04-06T00:56:31;100629.38;;;4.00;77.61
44198;BME280;30157;55.512;37.764;2023-04-06T00:58:57;100629.22;;;3.96;77.84
44198;BME280;30157;55.512;37.764;2023-04-06T01:01:24;100623.94;;;3.93;78.15
44198;BME280;30157;55.512;37.764;2023-04-06T01:03:53;100625.66;;;3.92;78.20
44198;BME280;30157;55.512;37.764;2023-04-06T01:06:20;100626.31;;;3.86;78.10
44198;BME280;30157;55.512;37.764;2023-04-06T01:08:54;100609.69;;;3.77;78.40
44198;BME280;30157;55.512;37.764;2023-04-06T01:11:23;100621.00;;;3.82;78.50
44198;BME280;30157;55.512;37.764;2023-04-06T01:13:51;100624.38;;;3.81;78.68
44198;BME280;30157;55.512;37.764;2023-04-06T01:16:26;100615.72;;;3.77;78.87
44198;BME280;30157;55.512;37.764;2023-04-06T01:19:11;100610.22;;;3.66;78.97
44198;BME280;30157;55.512;37.764;2023-04-06T01:21:41;100625.66;;;3.68;79.23
44198;BME280;30157;55.512;37.764;2023-04-06T01:24:39;100569.59;;;3.32;79.21
44198;BME280;30157;55.512;37.764;2023-04-06T01:27:18;100620.19;;;3.59;79.66
44198;BME280;30157;55.512;37.764;2023-04-06T01:30:03;100620.19;;;3.59;79.88
44198;BME280;30157;55.512;37.764;2023-04-06T01:32:39;100521.28;;;2.97;79.68
44198;BME280;30157;55.512;37.764;2023-04-06T01:35:07;100620.94;;;3.56;79.80
44198;BME280;30157;55.512;37.764;2023-04-06T01:37:37;100621.81;;;3.57;79.80
44198;BME280;30157;55.512;37.764;2023-04-06T01:40:06;100609.81;;;3.56;79.89
44198;BME280;30157;55.512;37.764;2023-04-06T01:42:43;100609.63;;;3.51;79.80
44198;BME280;30157;55.512;37.764;2023-04-06T01:45:14;100565.63;;;3.17;80.21
44198;BME280;30157;55.512;37.764;2023-04-06T01:47:40;100613.84;;;3.49;80.25
44198;BME280;30157;55.512;37.764;2023-04-06T01:50:06;100623.97;;;3.46;80.08
44198;BME280;30157;55.512;37.764;2023-04-06T01:52:37;100622.13;;;3.42;80.40
44198;BME280;30157;55.512;37.764;2023-04-06T01:55:03;100555.69;;;3.02;80.38
44198;BME280;30157;55.512;37.764;2023-04-06T01:57:47;100628.00;;;3.39;80.35
44198;BME280;30157;55.512;37.764;2023-04-06T02:00:24;100615.53;;;3.26;80.38
44198;BME280;30157;55.512;37.764;2023-04-06T02:02:53;100627.91;;;3.36;80.41
44198;BME280;30157;55.512;37.764;2023-04-06T02:05:25;100575.28;;;3.00;80.44
44198;BME280;30157;55.512;37.764;2023-04-06T02:07:52;100638.13;;;3.34;80.56
44198;BME280;30157;55.512;37.764;2023-04-06T02:10:25;100621.47;;;3.23;80.44
44198;BME280;30157;55.512;37.764;2023-04-06T02:12:51;100634.44;;;3.28;80.85
44198;BME280;30157;55.512;37.764;2023-04-06T02:15:23;100574.88;;;2.90;80.97
44198;BME280;30157;55.512;37.764;2023-04-06T02:17:48;100580.88;;;2.90;80.77
44198;BME280;30157;55.512;37.764;2023-04-06T02:20:14;100650.50;;;3.22;81.16
44198;BME280;30157;55.512;37.764;2023-04-06T02:22:40;100530.56;;;2.48;81.19
44198;BME280;30157;55.512;37.764;2023-04-06T02:25:06;100663.19;;;3.19;81.30
44198;BME280;30157;55.512;37.764;2023-04-06T02:27:32;100643.91;;;3.06;81.27
44198;BME280;30157;55.512;37.764;2023-04-06T02:29:58;100650.19;;;3.14;81.43
44198;BME280;30157;55.512;37.764;2023-04-06T02:32:24;100651.91;;;3.14;81.33
44198;BME280;30157;55.512;37.764;2023-04-06T02:34:51;100651.59;;;3.06;81.42
44198;BME280;30157;55.512;37.764;2023-04-06T02:37:19;100596.47;;;2.74;81.35
44198;BME280;30157;55.512;37.764;2023-04-06T02:39:45;100640.91;;;2.95;81.65
44198;BME280;30157;55.512;37.764;2023-04-06T02:42:11;100629.72;;;2.93;81.67
44198;BME280;30157;55.512;37.764;2023-04-06T02:44:37;100661.09;;;3.09;81.57
44198;BME280;30157;55.512;37.764;2023-04-06T02:47:02;100658.34;;;3.04;81.48
44198;BME280;30157;55.512;37.764;2023-04-06T02:49:29;100664.34;;;3.05;81.67
44198;BME280;30157;55.512;37.764;2023-04-06T02:51:57;100645.94;;;2.92;81.61
44198;BME280;30157;55.512;37.764;2023-04-06T02:54:27;100674.56;;;3.03;81.54
44198;BME280;30157;55.512;37.764;2023-04-06T02:56:53;100667.69;;;3.02;81.48
44198;BME280;30157;55.512;37.764;2023-04-06T02:59:22;100623.63;;;2.68;81.17
44198;BME280;30157;55.512;37.764;2023-04-06T03:02:00;100673.63;;;3.01;81.65
44198;BME280;30157;55.512;37.764;2023-04-06T03:04:26;100677.13;;;3.03;81.36
44198;BME280;30157;55.512;37.764;2023-04-06T03:06:54;100626.28;;;2.72;81.62
44198;BME280;30157;55.512;37.764;2023-04-06T03:09:31;100674.56;;;3.03;81.36
44198;BME280;30157;55.512;37.764;2023-04-06T03:11:56;100666.66;;;2.98;81.40
44198;BME280;30157;55.512;37.764;2023-04-06T03:14:23;100617.53;;;2.66;81.58
44198;BME280;30157;55.512;37.764;2023-04-06T03:16:49;100675.53;;;3.07;81.33
44198;BME280;30157;55.512;37.764;2023-04-06T03:19:19;100683.38;;;3.10;81.21
44198;BME280;30157;55.512;37.764;2023-04-06T03:21:45;100685.09;;;3.11;80.97
44198;BME280;30157;55.512;37.764;2023-04-06T03:24:12;100689.47;;;3.13;81.07
44198;BME280;30157;55.512;37.764;2023-04-06T03:26:39;100669.66;;;3.09;80.94
44198;BME280;30157;55.512;37.764;2023-04-06T03:29:06;100696.97;;;3.30;80.60
44198;BME280;30157;55.512;37.764;2023-04-06T03:31:32;100706.19;;;3.47;80.14
44198;BME280;30157;55.512;37.764;2023-04-06T03:34:04;100686.34;;;3.66;79.24
44198;BME280;30157;55.512;37.764;2023-04-06T03:36:34;100638.25;;;3.62;78.30
44198;BME280;30157;55.512;37.764;2023-04-06T03:39:02;100694.25;;;4.19;76.85
44198;BME280;30157;55.512;37.764;2023-04-06T03:41:30;100636.50;;;4.09;76.24
44198;BME280;30157;55.512;37.764;2023-04-06T03:44:05;100640.47;;;4.25;75.33
44198;BME280;30157;55.512;37.764;2023-04-06T03:46:31;100703.16;;;4.80;74.17
44198;BME280;30157;55.512;37.764;2023-04-06T03:48:58;100699.81;;;4.83;73.37
44198;BME280;30157;55.512;37.764;2023-04-06T03:51:23;100630.56;;;4.62;72.68
44198;BME280;30157;55.512;37.764;2023-04-06T03:53:50;100701.44;;;5.07;72.01
44198;BME280;30157;55.512;37.764;2023-04-06T03:56:16;100698.03;;;5.08;71.56
44198;BME280;30157;55.512;37.764;2023-04-06T03:58:42;100657.31;;;4.94;71.09
44198;BME280;30157;55.512;37.764;2023-04-06T04:01:09;100709.00;;;5.29;70.65
44198;BME280;30157;55.512;37.764;2023-04-06T04:03:35;100699.16;;;5.45;70.16
44198;BME280;30157;55.512;37.764;2023-04-06T04:06:01;100708.28;;;5.64;69.50
44198;BME280;30157;55.512;37.764;2023-04-06T04:08:26;100705.06;;;5.69;69.05
44198;BME280;30157;55.512;37.764;2023-04-06T04:10:52;100708.28;;;5.93;68.24
44198;BME280;30157;55.512;37.764;2023-04-06T04:13:19;100715.16;;;6.22;67.64
44198;BME280;30157;55.512;37.764;2023-04-06T04:15:47;100698.41;;;6.40;66.65
44198;BME280;30157;55.512;37.764;2023-04-06T04:18:14;100717.25;;;6.71;65.42
44198;BME280;30157;55.512;37.764;2023-04-06T04:20:40;100716.47;;;6.73;65.08
44198;BME280;30157;55.512;37.764;2023-04-06T04:23:08;100706.53;;;6.90;63.79
44198;BME280;30157;55.512;37.764;2023-04-06T04:25:34;100702.53;;;7.02;63.60
44198;BME280;30157;55.512;37.764;2023-04-06T04:28:00;100711.97;;;7.38;63.36
44198;BME280;30157;55.512;37.764;2023-04-06T04:30:27;100669.94;;;7.45;61.37
44198;BME280;30157;55.512;37.764;2023-04-06T04:32:53;100662.59;;;7.64;61.18
44198;BME280;30157;55.512;37.764;2023-04-06T04:35:21;100655.00;;;7.71;59.88
44198;BME280;30157;55.512;37.764;2023-04-06T04:37:47;100694.09;;;7.90;59.69
44198;BME280;30157;55.512;37.764;2023-04-06T04:40:15;100707.94;;;8.36;59.83
44198;BME280;30157;55.512;37.764;2023-04-06T04:43:02;100666.09;;;8.57;57.59
44198;BME280;30157;55.512;37.764;2023-04-06T04:45:32;100708.03;;;8.90;56.82
44198;BME280;30157;55.512;37.764;2023-04-06T04:48:03;100724.44;;;8.92;56.75
44198;BME280;30157;55.512;37.764;2023-04-06T04:50:39;100707.91;;;9.39;56.22
44198;BME280;30157;55.512;37.764;2023-04-06T04:53:07;100707.31;;;9.58;54.59
44198;BME280;30157;55.512;37.764;2023-04-06T04:55:33;100696.94;;;9.58;54.62
44198;BME280;30157;55.512;37.764;2023-04-06T04:57:59;100665.19;;;9.75;53.50
44198;BME280;30157;55.512;37.764;2023-04-06T05:00:40;100713.19;;;10.16;52.86
44198;BME280;30157;55.512;37.764;2023-04-06T05:03:06;100728.16;;;10.38;52.25
44198;BME280;30157;55.512;37.764;2023-04-06T05:05:35;100709.38;;;10.63;51.26
44198;BME280;30157;55.512;37.764;2023-04-06T05:08:03;100725.78;;;10.58;51.17
44198;BME280;30157;55.512;37.764;2023-04-06T05:10:43;100710.94;;;10.44;51.27
44198;BME280;30157;55.512;37.764;2023-04-06T05:13:10;100696.50;;;10.78;51.14
44198;BME280;30157;55.512;37.764;2023-04-06T05:15:36;100706.22;;;10.99;49.80
44198;BME280;30157;55.512;37.764;2023-04-06T05:18:16;100724.69;;;11.46;49.43
44198;BME280;30157;55.512;37.764;2023-04-06T05:20:42;100720.59;;;11.86;48.04
44198;BME280;30157;55.512;37.764;2023-04-06T05:23:08;100718.06;;;12.02;47.25
44198;BME280;30157;55.512;37.764;2023-04-06T05:25:34;100665.94;;;11.74;47.55
44198;BME280;30157;55.512;37.764;2023-04-06T05:28:11;100706.81;;;12.00;46.99
44198;BME280;30157;55.512;37.764;2023-04-06T05:30:40;100664.22;;;11.82;46.69
44198;BME280;30157;55.512;37.764;2023-04-06T05:33:09;100710.34;;;12.28;46.27
44198;BME280;30157;55.512;37.764;2023-04-06T05:35:47;100624.28;;;11.71;45.80
44198;BME280;30157;55.512;37.764;2023-04-06T05:38:13;100711.28;;;12.58;45.70
44198;BME280;30157;55.512;37.764;2023-04-06T05:40:39;100696.50;;;12.78;44.93
44198;BME280;30157;55.512;37.764;2023-04-06T05:43:09;100670.44;;;12.35;45.28
44198;BME280;30157;55.512;37.764;2023-04-06T05:45:38;100704.31;;;12.60;45.15
44198;BME280;30157;55.512;37.764;2023-04-06T05:48:05;100712.16;;;12.91;44.63
44198;BME280;30157;55.512;37.764;2023-04-06T05:50:31;100673.06;;;12.41;44.69
44198;BME280;30157;55.512;37.764;2023-04-06T05:52:58;100711.28;;;12.70;44.83
44198;BME280;30157;55.512;37.764;2023-04-06T05:55:29;100682.63;;;12.56;44.53
44198;BME280;30157;55.512;37.764;2023-04-06T05:58:07;100713.91;;;12.76;44.21
44198;BME280;30157;55.512;37.764;2023-04-06T06:00:33;100723.44;;;12.62;44.79
44198;BME280;30157;55.512;37.764;2023-04-06T06:03:04;100668.75;;;12.88;44.08
44198;BME280;30157;55.512;37.764;2023-04-06T06:05:32;100714.72;;;13.50;43.24
44198;BME280;30157;55.512;37.764;2023-04-06T06:08:05;100719.03;;;13.60;42.84
44198;BME280;30157;55.512;37.764;2023-04-06T06:10:31;100688.56;;;13.76;41.94
44198;BME280;30157;55.512;37.764;2023-04-06T06:12:57;100716.34;;;13.82;42.15
44198;BME280;30157;55.512;37.764;2023-04-06T06:15:23;100703.28;;;13.88;41.76
44198;BME280;30157;55.512;37.764;2023-04-06T06:17:52;100706.59;;;14.22;41.44
44198;BME280;30157;55.512;37.764;2023-04-06T06:20:17;100659.28;;;14.70;40.49
44198;BME280;30157;55.512;37.764;2023-04-06T06:22:43;100698.44;;;14.75;39.97
44198;BME280;30157;55.512;37.764;2023-04-06T06:25:14;100703.78;;;14.55;40.48
44198;BME280;30157;55.512;37.764;2023-04-06T06:27:41;100705.47;;;14.60;40.22
44198;BME280;30157;55.512;37.764;2023-04-06T06:30:08;100708.81;;;14.84;40.06
44198;BME280;30157;55.512;37.764;2023-04-06T06:32:37;100708.69;;;15.01;39.46
44198;BME280;30157;55.512;37.764;2023-04-06T06:35:03;100700.50;;;15.34;38.56
44198;BME280;30157;55.512;37.764;2023-04-06T06:37:29;100704.69;;;15.50;38.14
44198;BME280;30157;55.512;37.764;2023-04-06T06:39:54;100706.63;;;15.33;38.40
44198;BME280;30157;55.512;37.764;2023-04-06T06:42:21;100704.19;;;15.95;38.38
44198;BME280;30157;55.512;37.764;2023-04-06T06:45:12;100707.88;;;17.02;36.42
44198;BME280;30157;55.512;37.764;2023-04-06T06:47:39;100704.16;;;17.15;35.95
44198;BME280;30157;55.512;37.764;2023-04-06T06:50:06;100701.94;;;17.39;35.37
44198;BME280;30157;55.512;37.764;2023-04-06T06:52:32;100693.81;;;17.53;34.75
44198;BME280;30157;55.512;37.764;2023-04-06T06:54:59;100715.28;;;17.73;34.57
44198;BME280;30157;55.512;37.764;2023-04-06T06:57:25;100705.88;;;18.05;34.06
44198;BME280;30157;55.512;37.764;2023-04-06T06:59:52;100695.38;;;18.05;33.73
44198;BME280;30157;55.512;37.764;2023-04-06T07:02:19;100668.38;;;18.00;33.91
44198;BME280;30157;55.512;37.764;2023-04-06T07:04:48;100699.41;;;18.59;33.38
44198;BME280;30157;55.512;37.764;2023-04-06T07:07:14;100690.66;;;18.21;33.44
44198;BME280;30157;55.512;37.764;2023-04-06T07:09:40;100700.69;;;18.41;33.61
44198;BME280;30157;55.512;37.764;2023-04-06T07:12:06;100696.75;;;18.61;32.84
44198;BME280;30157;55.512;37.764;2023-04-06T07:14:31;100705.28;;;17.92;33.39
44198;BME280;30157;55.512;37.764;2023-04-06T07:16:57;100712.06;;;18.04;33.97
44198;BME280;30157;55.512;37.764;2023-04-06T07:19:23;100664.81;;;18.03;33.54
44198;BME280;30157;55.512;37.764;2023-04-06T07:21:49;100703.41;;;18.38;33.11
44198;BME280;30157;55.512;37.764;2023-04-06T07:24:15;100672.91;;;17.90;33.53
44198;BME280;30157;55.512;37.764;2023-04-06T07:26:42;100683.53;;;17.86;33.61
44198;BME280;30157;55.512;37.764;2023-04-06T07:29:08;100713.72;;;18.08;33.46
44198;BME280;30157;55.512;37.764;2023-04-06T07:31:34;100705.69;;;18.90;32.67
44198;BME280;30157;55.512;37.764;2023-04-06T07:34:05;100707.69;;;19.47;31.72
44198;BME280;30157;55.512;37.764;2023-04-06T07:36:31;100702.59;;;20.04;30.88
44198;BME280;30157;55.512;37.764;2023-04-06T07:38:56;100702.34;;;19.84;30.28
44198;BME280;30157;55.512;37.764;2023-04-06T07:41:23;100675.59;;;19.02;30.87
44198;BME280;30157;55.512;37.764;2023-04-06T07:43:49;100645.34;;;18.84;30.85
44198;BME280;30157;55.512;37.764;2023-04-06T07:46:16;100689.72;;;19.32;31.21
44198;BME280;30157;55.512;37.764;2023-04-06T07:48:42;100648.50;;;18.98;30.93
44198;BME280;30157;55.512;37.764;2023-04-06T07:51:08;100659.00;;;18.63;31.33
44198;BME280;30157;55.512;37.764;2023-04-06T07:53:39;100702.38;;;18.81;31.67
44198;BME280;30157;55.512;37.764;2023-04-06T07:56:04;100694.72;;;19.41;31.35
44198;BME280;30157;55.512;37.764;2023-04-06T07:58:30;100691.81;;;19.51;30.72
44198;BME280;30157;55.512;37.764;2023-04-06T08:00:56;100693.75;;;19.44;30.38
44198;BME280;30157;55.512;37.764;2023-04-06T08:03:23;100649.84;;;19.46;30.49
44198;BME280;30157;55.512;37.764;2023-04-06T08:05:51;100702.22;;;19.87;30.71
44198;BME280;30157;55.512;37.764;2023-04-06T08:08:18;100677.69;;;19.86;30.23
44198;BME280;30157;55.512;37.764;2023-04-06T08:10:45;100668.66;;;19.93;28.94
44198;BME280;30157;55.512;37.764;2023-04-06T08:13:10;100691.53;;;19.93;29.24
44198;BME280;30157;55.512;37.764;2023-04-06T08:15:36;100688.31;;;19.50;29.83
44198;BME280;30157;55.512;37.764;2023-04-06T08:18:02;100688.16;;;19.56;29.81
44198;BME280;30157;55.512;37.764;2023-04-06T08:20:28;100686.03;;;20.01;29.24
44198;BME280;30157;55.512;37.764;2023-04-06T08:22:54;100670.81;;;20.65;28.72
44198;BME280;30157;55.512;37.764;2023-04-06T08:25:19;100689.19;;;21.21;28.02
44198;BME280;30157;55.512;37.764;2023-04-06T08:27:45;100670.59;;;21.24;28.30
44198;BME280;30157;55.512;37.764;2023-04-06T08:30:11;100685.94;;;21.38;27.35
44198;BME280;30157;55.512;37.764;2023-04-06T08:32:36;100680.59;;;20.62;28.27
44198;BME280;30157;55.512;37.764;2023-04-06T08:35:02;100673.16;;;20.20;28.74
44198;BME280;30157;55.512;37.764;2023-04-06T08:37:28;100685.97;;;19.72;29.25
44198;BME280;30157;55.512;37.764;2023-04-06T08:39:54;100683.75;;;20.18;29.33
44198;BME280;30157;55.512;37.764;2023-04-06T08:42:21;100658.13;;;20.50;28.37
44198;BME280;30157;55.512;37.764;2023-04-06T08:44:50;100673.19;;;20.46;28.01
44198;BME280;30157;55.512;37.764;2023-04-06T08:47:18;100673.22;;;20.73;28.05
44198;BME280;30157;55.512;37.764;2023-04-06T08:49:44;100661.78;;;20.18;28.64
44198;BME280;30157;55.512;37.764;2023-04-06T08:52:11;100673.63;;;20.33;28.45
44198;BME280;30157;55.512;37.764;2023-04-06T08:54:37;100681.66;;;20.56;27.82
44198;BME280;30157;55.512;37.764;2023-04-06T08:57:04;100620.19;;;20.54;27.71
44198;BME280;30157;55.512;37.764;2023-04-06T08:59:31;100626.94;;;20.36;27.71
44198;BME280;30157;55.512;37.764;2023-04-06T09:01:59;100672.53;;;20.40;28.11
44198;BME280;30157;55.512;37.764;2023-04-06T09:04:34;100665.03;;;20.81;27.88
44198;BME280;30157;55.512;37.764;2023-04-06T09:07:01;100675.44;;;20.86;27.49
44198;BME280;30157;55.512;37.764;2023-04-06T09:09:27;100616.50;;;20.60;27.36
44198;BME280;30157;55.512;37.764;2023-04-06T09:11:53;100664.53;;;20.14;28.10
44198;BME280;30157;55.512;37.764;2023-04-06T09:14:53;100669.34;;;20.28;28.79
44198;BME280;30157;55.512;37.764;2023-04-06T09:17:23;100665.34;;;20.72;27.77
44198;BME280;30157;55.512;37.764;2023-04-06T09:19:50;100651.38;;;20.68;27.94
44198;BME280;30157;55.512;37.764;2023-04-06T09:22:16;100663.50;;;21.01;27.46
44198;BME280;30157;55.512;37.764;2023-04-06T09:24:47;100585.31;;;20.98;26.95
44198;BME280;30157;55.512;37.764;2023-04-06T09:27:14;100654.75;;;21.49;26.85
44198;BME280;30157;55.512;37.764;2023-04-06T09:29:41;100662.22;;;21.36;26.83
44198;BME280;30157;55.512;37.764;2023-04-06T09:32:08;100655.13;;;21.38;26.60
44198;BME280;30157;55.512;37.764;2023-04-06T09:34:42;100652.44;;;21.14;26.21
44198;BME280;30157;55.512;37.764;2023-04-06T09:37:14;100667.06;;;21.48;26.53
44198;BME280;30157;55.512;37.764;2023-04-06T09:39:40;100505.41;;;20.71;26.26
44198;BME280;30157;55.512;37.764;2023-04-06T09:42:05;100641.56;;;20.98;26.86
44198;BME280;30157;55.512;37.764;2023-04-06T09:44:31;100649.84;;;20.61;26.91
44198;BME280;30157;55.512;37.764;2023-04-06T09:46:57;100653.25;;;19.79;28.14
44198;BME280;30157;55.512;37.764;2023-04-06T09:49:24;100664.31;;;19.61;28.20
44198;BME280;30157;55.512;37.764;2023-04-06T09:52:18;100655.44;;;19.96;27.68
44198;BME280;30157;55.512;37.764;2023-04-06T09:54:46;100648.94;;;19.77;28.18
44198;BME280;30157;55.512;37.764;2023-04-06T09:57:41;100647.94;;;19.83;27.83
44198;BME280;30157;55.512;37.764;2023-04-06T10:00:13;100600.84;;;19.09;28.95
44198;BME280;30157;55.512;37.764;2023-04-06T10:05:58;100648.03;;;20.08;28.11
44198;BME280;30157;55.512;37.764;2023-04-06T10:08:29;100603.75;;;20.46;27.56
44198;BME280;30157;55.512;37.764;2023-04-06T10:10:58;100606.69;;;20.37;27.23
44198;BME280;30157;55.512;37.764;2023-04-06T10:13:26;100667.22;;;20.13;27.96
44198;BME280;30157;55.512;37.764;2023-04-06T10:15:52;100648.56;;;19.59;28.29
44198;BME280;30157;55.512;37.764;2023-04-06T10:18:18;100650.25;;;19.62;28.74
44198;BME280;30157;55.512;37.764;2023-04-06T10:21:12;100631.56;;;19.41;28.94
44198;BME280;30157;55.512;37.764;2023-04-06T10:23:51;100642.09;;;19.41;29.16
44198;BME280;30157;55.512;37.764;2023-04-06T10:26:20;100648.94;;;19.47;28.53
44198;BME280;30157;55.512;37.764;2023-04-06T10:28:48;100653.53;;;19.70;28.37
44198;BME280;30157;55.512;37.764;2023-04-06T10:31:13;100643.63;;;19.78;28.62
44198;BME280;30157;55.512;37.764;2023-04-06T10:33:39;100596.22;;;19.78;27.96
44198;BME280;30157;55.512;37.764;2023-04-06T10:36:14;100628.53;;;19.85;27.27
44198;BME280;30157;55.512;37.764;2023-04-06T10:38:41;100636.00;;;19.69;28.02
44198;BME280;30157;55.512;37.764;2023-04-06T10:41:09;100656.88;;;19.45;28.43
44198;BME280;30157;55.512;37.764;2023-04-06T10:43:37;100646.09;;;19.55;27.78
44198;BME280;30157;55.512;37.764;2023-04-06T10:46:04;100618.47;;;19.38;28.26
44198;BME280;30157;55.512;37.764;2023-04-06T10:48:41;100618.44;;;20.00;28.16
44198;BME280;30157;55.512;37.764;2023-04-06T10:51:11;100582.22;;;19.78;27.62
44198;BME280;30157;55.512;37.764;2023-04-06T10:53:37;100589.44;;;19.71;27.94
44198;BME280;30157;55.512;37.764;2023-04-06T10:56:04;100622.19;;;19.61;27.69
44198;BME280;30157;55.512;37.764;2023-04-06T10:58:35;100633.53;;;19.94;27.50
44198;BME280;30157;55.512;37.764;2023-04-06T11:01:01;100630.88;;;19.94;27.34
44198;BME280;30157;55.512;37.764;2023-04-06T11:03:27;100637.28;;;19.86;27.34
44198;BME280;30157;55.512;37.764;2023-04-06T11:05:54;100573.91;;;19.92;27.17
44198;BME280;30157;55.512;37.764;2023-04-06T11:08:33;100636.31;;;20.73;26.22
44198;BME280;30157;55.512;37.764;2023-04-06T11:13:50;100637.78;;;21.31;24.85
44198;BME280;30157;55.512;37.764;2023-04-06T11:16:19;100631.72;;;21.53;24.51
44198;BME280;30157;55.512;37.764;2023-04-06T11:18:48;100578.16;;;21.25;24.57
44198;BME280;30157;55.512;37.764;2023-04-06T11:21:15;100620.72;;;21.65;24.91
44198;BME280;30157;55.512;37.764;2023-04-06T11:23:43;100585.84;;;21.31;24.78
44198;BME280;30157;55.512;37.764;2023-04-06T11:26:12;100633.38;;;21.57;24.64
44198;BME280;30157;55.512;37.764;2023-04-06T11:28:41;100627.41;;;21.74;24.57
44198;BME280;30157;55.512;37.764;2023-04-06T11:31:09;100632.22;;;21.86;24.31
44198;BME280;30157;55.512;37.764;2023-04-06T11:33:35;100625.97;;;22.33;23.90
44198;BME280;30157;55.512;37.764;2023-04-06T11:36:02;100616.38;;;22.30;23.54
44198;BME280;30157;55.512;37.764;2023-04-06T11:38:28;100572.13;;;22.56;23.25
44198;BME280;30157;55.512;37.764;2023-04-06T11:40:53;100614.06;;;23.07;22.92
44198;BME280;30157;55.512;37.764;2023-04-06T11:43:27;100622.66;;;23.12;22.59
44198;BME280;30157;55.512;37.764;2023-04-06T11:45:59;100613.41;;;23.02;22.01
44198;BME280;30157;55.512;37.764;2023-04-06T11:48:29;100599.56;;;22.95;22.82
44198;BME280;30157;55.512;37.764;2023-04-06T11:50:59;100601.91;;;22.82;22.56
44198;BME280;30157;55.512;37.764;2023-04-06T11:53:29;100614.81;;;22.69;22.44
44198;BME280;30157;55.512;37.764;2023-04-06T11:55:56;100619.97;;;23.13;21.83
44198;BME280;30157;55.512;37.764;2023-04-06T11:58:22;100587.34;;;22.92;21.60
44198;BME280;30157;55.512;37.764;2023-04-06T12:00:47;100568.56;;;22.98;21.40
44198;BME280;30157;55.512;37.764;2023-04-06T12:03:13;100598.41;;;23.42;21.67
44198;BME280;30157;55.512;37.764;2023-04-06T12:05:40;100446.25;;;22.11;21.93
44198;BME280;30157;55.512;37.764;2023-04-06T12:08:06;100614.44;;;23.39;21.41
44198;BME280;30157;55.512;37.764;2023-04-06T12:10:31;100560.84;;;22.53;22.09
44198;BME280;30157;55.512;37.764;2023-04-06T12:12:57;100603.44;;;22.88;22.08
44198;BME280;30157;55.512;37.764;2023-04-06T12:15:23;100577.22;;;22.18;22.71
44198;BME280;30157;55.512;37.764;2023-04-06T12:17:49;100618.25;;;22.71;22.18
44198;BME280;30157;55.512;37.764;2023-04-06T12:20:17;100603.72;;;23.01;21.68
44198;BME280;30157;55.512;37.764;2023-04-06T12:22:43;100607.75;;;22.25;22.36
44198;BME280;30157;55.512;37.764;2023-04-06T12:25:09;100561.44;;;21.72;22.67
44198;BME280;30157;55.512;37.764;2023-04-06T12:27:35;100619.66;;;22.15;22.26
44198;BME280;30157;55.512;37.764;2023-04-06T12:30:00;100612.03;;;22.72;21.73
44198;BME280;30157;55.512;37.764;2023-04-06T12:32:28;100609.22;;;23.37;21.43
44198;BME280;30157;55.512;37.764;2023-04-06T12:34:54;100563.06;;;23.24;21.17
44198;BME280;30157;55.512;37.764;2023-04-06T12:37:20;100592.38;;;22.57;21.92
44198;BME280;30157;55.512;37.764;2023-04-06T12:39:46;100562.97;;;21.78;22.40
44198;BME280;30157;55.512;37.764;2023-04-06T12:42:12;100593.34;;;22.12;22.63
44198;BME280;30157;55.512;37.764;2023-04-06T12:44:39;100599.84;;;22.68;22.10
44198;BME280;30157;55.512;37.764;2023-04-06T12:47:05;100586.41;;;22.52;22.07
44198;BME280;30157;55.512;37.764;2023-04-06T12:49:32;100602.19;;;22.11;22.73
44198;BME280;30157;55.512;37.764;2023-04-06T12:51:58;100585.47;;;22.10;22.57
44198;BME280;30157;55.512;37.764;2023-04-06T12:54:24;100593.16;;;22.17;22.23